AGROMETEOROLOŠKI PORTAL
Vinorodna pokrajina

Temelj dobrega kmetovanja.

Pregled podatkov za lokacijo ZADLOG - ARSO, meteorološka postaja 157

Pregled senzorjev na lokaciji

ID Ime Zadnja
vrednost
Datum in čas
meritve
(lokalni čas)
Tip
senzorja
6001 Padavine (mm) 0 mm 15.4.2024 01:00 ARSO
6003 Relativna zračna vlaga (2 m) (% RH) 42 % RH 15.4.2024 01:00 ARSO
6002 Temperatura (2 m) (°C) 15,8 °C 15.4.2024 01:00 ARSO

Pregled podatkov zadnjih 24 ur

Zap.
št.
Datum in čas
(lokalni čas)
ZADLOG - ARSO
Padavine Relativna
zračna
vlaga
(2
m)
Temperatura
(2
m)
1 15.4.2024 01:00 0 42 15,8
2 15.4.2024 00:30 0 49 16
3 15.4.2024 00:00 0 44,3 16,6
4 14.4.2024 23:30 0 44 16,7
5 14.4.2024 23:00 0 44,3 16,9
6 14.4.2024 22:30 0 43 17,3
7 14.4.2024 22:00 0 43 17,5
8 14.4.2024 21:30 0 48 17,5
9 14.4.2024 21:00 0 51 17,5
10 14.4.2024 20:30 0 51,7 17,8
11 14.4.2024 20:00 0 50,3 18,1
12 14.4.2024 19:30 0 48 18,9
13 14.4.2024 19:00 0 48 19,6
14 14.4.2024 18:30 0 48,3 20
15 14.4.2024 18:00 0 48,3 20,4
16 14.4.2024 17:30 0 47,3 20,7
17 14.4.2024 17:00 0 47,7 21,1
18 14.4.2024 16:30 0 47,7 21,2
19 14.4.2024 16:00 0 47 21,2
20 14.4.2024 15:30 0 46,3 21,3
21 14.4.2024 15:00 0 46,3 21,5
22 14.4.2024 14:30 0 47 21,5
23 14.4.2024 14:00 0 49 21,4
24 14.4.2024 13:30 0 48 21,3
25 14.4.2024 13:00 0 48,7 21,2
26 14.4.2024 12:30 0 49,7 20,8
27 14.4.2024 12:00 0 48,3 20,8
28 14.4.2024 11:30 0 46 20,8
29 14.4.2024 11:00 0 47 20,5
30 14.4.2024 10:30 0 48 20,3
31 14.4.2024 10:00 0 48,3 20,1
32 14.4.2024 09:30 0 50,7 19,5
33 14.4.2024 09:00 0 50,7 19
34 14.4.2024 08:30 0 54 18,4
35 14.4.2024 08:00 0 61,3 17,4
36 14.4.2024 07:30 0 71 15,3
37 14.4.2024 07:00 0 69 15,6
38 14.4.2024 06:30 0 72,7 14,7
39 14.4.2024 06:00 0 82,3 12,1
40 14.4.2024 05:30 0 86,3 11
41 14.4.2024 05:00 0 91,3 9
42 14.4.2024 04:30 0 91 8,4
43 14.4.2024 04:00 0 90 8,7
44 14.4.2024 03:30 0 89 9,1
45 14.4.2024 03:00 0 89 9,3
46 14.4.2024 02:30 0 88,3 9,5